sensor_id;sensor_type;location;lat;lon;timestamp;P1;durP1;ratioP1;P2;durP2;ratioP2
30048;SDS011;16879;50.852;15.602;2023-08-24T00:00:59;9.13;;;5.35;;
30048;SDS011;16879;50.852;15.602;2023-08-24T00:03:28;9.43;;;5.20;;
30048;SDS011;16879;50.852;15.602;2023-08-24T00:05:54;6.38;;;5.35;;
30048;SDS011;16879;50.852;15.602;2023-08-24T00:08:20;4.97;;;4.47;;
30048;SDS011;16879;50.852;15.602;2023-08-24T00:10:52;6.32;;;4.55;;
30048;SDS011;16879;50.852;15.602;2023-08-24T00:13:18;5.88;;;4.00;;
30048;SDS011;16879;50.852;15.602;2023-08-24T00:15:44;5.20;;;4.38;;
30048;SDS011;16879;50.852;15.602;2023-08-24T00:18:12;5.20;;;4.70;;
30048;SDS011;16879;50.852;15.602;2023-08-24T00:20:39;6.72;;;5.72;;
30048;SDS011;16879;50.852;15.602;2023-08-24T00:23:05;5.15;;;4.68;;
30048;SDS011;16879;50.852;15.602;2023-08-24T00:25:31;7.38;;;5.10;;
30048;SDS011;16879;50.852;15.602;2023-08-24T00:27:58;4.38;;;3.97;;
30048;SDS011;16879;50.852;15.602;2023-08-24T00:30:24;4.78;;;4.10;;
30048;SDS011;16879;50.852;15.602;2023-08-24T00:32:51;19.98;;;6.97;;
30048;SDS011;16879;50.852;15.602;2023-08-24T00:35:21;7.03;;;6.03;;
30048;SDS011;16879;50.852;15.602;2023-08-24T00:37:47;7.72;;;6.50;;
30048;SDS011;16879;50.852;15.602;2023-08-24T00:40:15;7.35;;;5.40;;
30048;SDS011;16879;50.852;15.602;2023-08-24T00:42:42;7.25;;;6.43;;
30048;SDS011;16879;50.852;15.602;2023-08-24T00:45:10;7.00;;;6.20;;
30048;SDS011;16879;50.852;15.602;2023-08-24T00:47:37;11.27;;;7.07;;
30048;SDS011;16879;50.852;15.602;2023-08-24T00:50:05;7.55;;;6.28;;
30048;SDS011;16879;50.852;15.602;2023-08-24T00:52:32;11.68;;;5.97;;
30048;SDS011;16879;50.852;15.602;2023-08-24T00:55:00;7.45;;;5.03;;
30048;SDS011;16879;50.852;15.602;2023-08-24T00:57:27;7.35;;;5.43;;
30048;SDS011;16879;50.852;15.602;2023-08-24T00:59:55;6.28;;;4.65;;
30048;SDS011;16879;50.852;15.602;2023-08-24T01:02:22;5.75;;;5.07;;
30048;SDS011;16879;50.852;15.602;2023-08-24T01:04:48;4.85;;;4.28;;
30048;SDS011;16879;50.852;15.602;2023-08-24T01:07:15;9.23;;;5.30;;
30048;SDS011;16879;50.852;15.602;2023-08-24T01:09:41;6.22;;;4.93;;
30048;SDS011;16879;50.852;15.602;2023-08-24T01:17:22;5.43;;;4.35;;
30048;SDS011;16879;50.852;15.602;2023-08-24T01:19:54;5.22;;;4.05;;
30048;SDS011;16879;50.852;15.602;2023-08-24T01:25:12;4.47;;;4.07;;
30048;SDS011;16879;50.852;15.602;2023-08-24T01:27:38;4.78;;;3.75;;
30048;SDS011;16879;50.852;15.602;2023-08-24T01:30:07;4.88;;;4.07;;
30048;SDS011;16879;50.852;15.602;2023-08-24T01:32:34;3.90;;;3.30;;
30048;SDS011;16879;50.852;15.602;2023-08-24T01:35:04;3.67;;;3.38;;
30048;SDS011;16879;50.852;15.602;2023-08-24T01:37:30;10.93;;;5.30;;
30048;SDS011;16879;50.852;15.602;2023-08-24T01:40:00;4.28;;;3.90;;
30048;SDS011;16879;50.852;15.602;2023-08-24T01:42:45;4.30;;;3.90;;
30048;SDS011;16879;50.852;15.602;2023-08-24T01:45:14;4.97;;;4.25;;
30048;SDS011;16879;50.852;15.602;2023-08-24T01:47:42;3.72;;;3.42;;
30048;SDS011;16879;50.852;15.602;2023-08-24T01:50:09;11.18;;;3.88;;
30048;SDS011;16879;50.852;15.602;2023-08-24T01:52:35;4.38;;;3.97;;
30048;SDS011;16879;50.852;15.602;2023-08-24T01:55:02;4.53;;;4.13;;
30048;SDS011;16879;50.852;15.602;2023-08-24T01:57:28;4.65;;;4.18;;
30048;SDS011;16879;50.852;15.602;2023-08-24T01:59:55;4.05;;;3.72;;
30048;SDS011;16879;50.852;15.602;2023-08-24T02:02:21;10.43;;;4.75;;
30048;SDS011;16879;50.852;15.602;2023-08-24T02:04:47;4.75;;;3.65;;
30048;SDS011;16879;50.852;15.602;2023-08-24T02:07:14;12.85;;;3.40;;
30048;SDS011;16879;50.852;15.602;2023-08-24T02:09:40;3.97;;;3.65;;
30048;SDS011;16879;50.852;15.602;2023-08-24T02:12:14;3.90;;;3.60;;
30048;SDS011;16879;50.852;15.602;2023-08-24T02:14:40;4.93;;;4.45;;
30048;SDS011;16879;50.852;15.602;2023-08-24T02:17:06;3.58;;;3.28;;
30048;SDS011;16879;50.852;15.602;2023-08-24T02:19:33;4.07;;;3.78;;
30048;SDS011;16879;50.852;15.602;2023-08-24T02:22:00;4.72;;;3.35;;
30048;SDS011;16879;50.852;15.602;2023-08-24T02:24:26;7.78;;;3.50;;
30048;SDS011;16879;50.852;15.602;2023-08-24T02:26:52;5.05;;;4.65;;
30048;SDS011;16879;50.852;15.602;2023-08-24T02:29:19;4.55;;;3.97;;
30048;SDS011;16879;50.852;15.602;2023-08-24T02:31:45;4.53;;;4.13;;
30048;SDS011;16879;50.852;15.602;2023-08-24T02:34:11;6.65;;;4.80;;
30048;SDS011;16879;50.852;15.602;2023-08-24T02:36:38;4.68;;;3.80;;
30048;SDS011;16879;50.852;15.602;2023-08-24T02:39:04;7.15;;;4.40;;
30048;SDS011;16879;50.852;15.602;2023-08-24T02:41:33;7.75;;;4.38;;
30048;SDS011;16879;50.852;15.602;2023-08-24T02:44:00;5.15;;;4.68;;
30048;SDS011;16879;50.852;15.602;2023-08-24T02:46:26;7.95;;;3.85;;
30048;SDS011;16879;50.852;15.602;2023-08-24T02:48:54;7.07;;;3.55;;
30048;SDS011;16879;50.852;15.602;2023-08-24T02:51:22;8.48;;;4.65;;
30048;SDS011;16879;50.852;15.602;2023-08-24T02:53:51;4.22;;;3.92;;
30048;SDS011;16879;50.852;15.602;2023-08-24T02:56:17;4.57;;;4.15;;
30048;SDS011;16879;50.852;15.602;2023-08-24T02:58:44;5.03;;;4.63;;
30048;SDS011;16879;50.852;15.602;2023-08-24T03:01:10;4.90;;;4.03;;
30048;SDS011;16879;50.852;15.602;2023-08-24T03:03:37;7.60;;;3.95;;
30048;SDS011;16879;50.852;15.602;2023-08-24T03:06:05;8.07;;;4.22;;
30048;SDS011;16879;50.852;15.602;2023-08-24T03:08:35;4.15;;;3.60;;
30048;SDS011;16879;50.852;15.602;2023-08-24T03:11:02;4.85;;;4.43;;
30048;SDS011;16879;50.852;15.602;2023-08-24T03:13:30;5.18;;;4.18;;
30048;SDS011;16879;50.852;15.602;2023-08-24T03:15:56;6.03;;;3.38;;
30048;SDS011;16879;50.852;15.602;2023-08-24T03:18:23;4.13;;;3.60;;
30048;SDS011;16879;50.852;15.602;2023-08-24T03:20:50;5.22;;;4.20;;
30048;SDS011;16879;50.852;15.602;2023-08-24T03:23:19;5.00;;;4.00;;
30048;SDS011;16879;50.852;15.602;2023-08-24T03:25:47;7.93;;;3.67;;
30048;SDS011;16879;50.852;15.602;2023-08-24T03:28:13;4.57;;;4.18;;
30048;SDS011;16879;50.852;15.602;2023-08-24T03:30:45;4.57;;;4.18;;
30048;SDS011;16879;50.852;15.602;2023-08-24T03:33:12;5.05;;;4.25;;
30048;SDS011;16879;50.852;15.602;2023-08-24T03:35:39;3.75;;;3.38;;
30048;SDS011;16879;50.852;15.602;2023-08-24T03:38:06;5.68;;;4.65;;
30048;SDS011;16879;50.852;15.602;2023-08-24T03:40:32;7.82;;;4.68;;
30048;SDS011;16879;50.852;15.602;2023-08-24T03:43:02;4.30;;;3.92;;
30048;SDS011;16879;50.852;15.602;2023-08-24T03:45:29;6.32;;;5.38;;
30048;SDS011;16879;50.852;15.602;2023-08-24T03:47:55;7.28;;;4.82;;
30048;SDS011;16879;50.852;15.602;2023-08-24T03:50:23;4.32;;;3.92;;
30048;SDS011;16879;50.852;15.602;2023-08-24T03:52:50;5.70;;;4.95;;
30048;SDS011;16879;50.852;15.602;2023-08-24T03:55:20;7.95;;;5.47;;
30048;SDS011;16879;50.852;15.602;2023-08-24T03:57:47;4.65;;;4.25;;
30048;SDS011;16879;50.852;15.602;2023-08-24T04:00:13;6.30;;;4.10;;
30048;SDS011;16879;50.852;15.602;2023-08-24T04:02:42;4.45;;;4.00;;
30048;SDS011;16879;50.852;15.602;2023-08-24T04:05:08;5.28;;;3.55;;
30048;SDS011;16879;50.852;15.602;2023-08-24T04:07:34;6.13;;;4.25;;
30048;SDS011;16879;50.852;15.602;2023-08-24T04:10:05;5.85;;;5.15;;
30048;SDS011;16879;50.852;15.602;2023-08-24T04:12:34;6.47;;;4.63;;
30048;SDS011;16879;50.852;15.602;2023-08-24T04:15:01;5.05;;;4.55;;
30048;SDS011;16879;50.852;15.602;2023-08-24T04:17:27;3.90;;;3.50;;
30048;SDS011;16879;50.852;15.602;2023-08-24T04:19:53;7.20;;;4.88;;
30048;SDS011;16879;50.852;15.602;2023-08-24T04:22:20;5.32;;;4.22;;
30048;SDS011;16879;50.852;15.602;2023-08-24T04:24:47;5.35;;;4.80;;
30048;SDS011;16879;50.852;15.602;2023-08-24T04:27:14;4.22;;;3.92;;
30048;SDS011;16879;50.852;15.602;2023-08-24T04:29:43;4.45;;;4.05;;
30048;SDS011;16879;50.852;15.602;2023-08-24T04:32:10;5.70;;;4.15;;
30048;SDS011;16879;50.852;15.602;2023-08-24T04:34:36;5.32;;;4.82;;
30048;SDS011;16879;50.852;15.602;2023-08-24T04:37:03;4.57;;;4.13;;
30048;SDS011;16879;50.852;15.602;2023-08-24T04:39:32;5.15;;;4.68;;
30048;SDS011;16879;50.852;15.602;2023-08-24T04:42:01;4.28;;;3.97;;
30048;SDS011;16879;50.852;15.602;2023-08-24T04:44:27;3.90;;;3.45;;
30048;SDS011;16879;50.852;15.602;2023-08-24T04:46:54;5.68;;;4.25;;
30048;SDS011;16879;50.852;15.602;2023-08-24T04:49:20;6.65;;;6.05;;
30048;SDS011;16879;50.852;15.602;2023-08-24T04:51:46;9.30;;;5.38;;
30048;SDS011;16879;50.852;15.602;2023-08-24T04:54:12;4.80;;;3.65;;
30048;SDS011;16879;50.852;15.602;2023-08-24T04:56:40;7.60;;;5.07;;
30048;SDS011;16879;50.852;15.602;2023-08-24T04:59:06;7.70;;;5.63;;
30048;SDS011;16879;50.852;15.602;2023-08-24T05:01:33;6.18;;;5.57;;
30048;SDS011;16879;50.852;15.602;2023-08-24T05:03:59;5.20;;;4.63;;
30048;SDS011;16879;50.852;15.602;2023-08-24T05:06:25;5.22;;;4.72;;
30048;SDS011;16879;50.852;15.602;2023-08-24T05:08:52;5.40;;;4.68;;
30048;SDS011;16879;50.852;15.602;2023-08-24T05:11:19;5.72;;;4.15;;
30048;SDS011;16879;50.852;15.602;2023-08-24T05:13:45;7.28;;;4.78;;
30048;SDS011;16879;50.852;15.602;2023-08-24T05:16:12;5.63;;;5.00;;
30048;SDS011;16879;50.852;15.602;2023-08-24T05:18:41;9.07;;;4.60;;
30048;SDS011;16879;50.852;15.602;2023-08-24T05:21:08;7.15;;;5.85;;
30048;SDS011;16879;50.852;15.602;2023-08-24T05:23:34;5.88;;;5.25;;
30048;SDS011;16879;50.852;15.602;2023-08-24T05:26:01;6.85;;;6.15;;
30048;SDS011;16879;50.852;15.602;2023-08-24T05:28:28;5.43;;;5.00;;
30048;SDS011;16879;50.852;15.602;2023-08-24T05:30:55;9.13;;;7.25;;
30048;SDS011;16879;50.852;15.602;2023-08-24T05:33:37;8.38;;;5.53;;
30048;SDS011;16879;50.852;15.602;2023-08-24T05:36:04;7.15;;;4.32;;
30048;SDS011;16879;50.852;15.602;2023-08-24T05:38:31;6.03;;;5.45;;
30048;SDS011;16879;50.852;15.602;2023-08-24T05:40:56;5.30;;;4.80;;
30048;SDS011;16879;50.852;15.602;2023-08-24T05:43:23;6.80;;;6.10;;
30048;SDS011;16879;50.852;15.602;2023-08-24T05:45:48;5.15;;;4.55;;
30048;SDS011;16879;50.852;15.602;2023-08-24T05:48:15;7.22;;;5.10;;
30048;SDS011;16879;50.852;15.602;2023-08-24T05:50:45;6.72;;;5.00;;
30048;SDS011;16879;50.852;15.602;2023-08-24T05:53:11;6.78;;;5.13;;
30048;SDS011;16879;50.852;15.602;2023-08-24T05:55:38;9.90;;;6.18;;
30048;SDS011;16879;50.852;15.602;2023-08-24T05:58:05;5.78;;;5.18;;
30048;SDS011;16879;50.852;15.602;2023-08-24T06:00:31;9.70;;;6.60;;
30048;SDS011;16879;50.852;15.602;2023-08-24T06:02:58;9.95;;;6.00;;
30048;SDS011;16879;50.852;15.602;2023-08-24T06:05:24;8.50;;;5.60;;
30048;SDS011;16879;50.852;15.602;2023-08-24T06:07:51;6.18;;;4.50;;
30048;SDS011;16879;50.852;15.602;2023-08-24T06:10:17;7.03;;;5.28;;
30048;SDS011;16879;50.852;15.602;2023-08-24T06:12:43;9.93;;;5.97;;
30048;SDS011;16879;50.852;15.602;2023-08-24T06:15:09;5.57;;;4.95;;
30048;SDS011;16879;50.852;15.602;2023-08-24T06:17:38;7.30;;;6.22;;
30048;SDS011;16879;50.852;15.602;2023-08-24T06:20:05;11.60;;;5.28;;
30048;SDS011;16879;50.852;15.602;2023-08-24T06:22:35;7.70;;;5.95;;
30048;SDS011;16879;50.852;15.602;2023-08-24T06:25:01;7.35;;;5.28;;
30048;SDS011;16879;50.852;15.602;2023-08-24T06:27:26;5.78;;;5.03;;
30048;SDS011;16879;50.852;15.602;2023-08-24T06:29:53;7.28;;;5.20;;
30048;SDS011;16879;50.852;15.602;2023-08-24T06:32:19;5.88;;;5.05;;
30048;SDS011;16879;50.852;15.602;2023-08-24T06:34:46;10.02;;;7.55;;
30048;SDS011;16879;50.852;15.602;2023-08-24T06:37:12;9.30;;;6.93;;
30048;SDS011;16879;50.852;15.602;2023-08-24T06:39:39;9.35;;;7.35;;
30048;SDS011;16879;50.852;15.602;2023-08-24T06:42:05;10.13;;;7.15;;
30048;SDS011;16879;50.852;15.602;2023-08-24T06:44:31;8.68;;;6.90;;
30048;SDS011;16879;50.852;15.602;2023-08-24T06:46:57;10.48;;;5.03;;
30048;SDS011;16879;50.852;15.602;2023-08-24T06:49:23;6.90;;;5.18;;
30048;SDS011;16879;50.852;15.602;2023-08-24T06:51:49;9.60;;;5.47;;
30048;SDS011;16879;50.852;15.602;2023-08-24T06:54:15;8.77;;;4.72;;
30048;SDS011;16879;50.852;15.602;2023-08-24T06:56:41;11.55;;;4.78;;
30048;SDS011;16879;50.852;15.602;2023-08-24T06:59:08;5.22;;;4.45;;
30048;SDS011;16879;50.852;15.602;2023-08-24T07:01:34;6.57;;;4.70;;
30048;SDS011;16879;50.852;15.602;2023-08-24T07:04:01;7.28;;;4.25;;
30048;SDS011;16879;50.852;15.602;2023-08-24T07:06:28;8.80;;;5.20;;
30048;SDS011;16879;50.852;15.602;2023-08-24T07:08:53;5.88;;;4.93;;
30048;SDS011;16879;50.852;15.602;2023-08-24T07:11:20;5.63;;;4.97;;
30048;SDS011;16879;50.852;15.602;2023-08-24T07:13:48;6.45;;;4.47;;
30048;SDS011;16879;50.852;15.602;2023-08-24T07:16:15;5.07;;;4.00;;
30048;SDS011;16879;50.852;15.602;2023-08-24T07:18:41;6.97;;;5.60;;
30048;SDS011;16879;50.852;15.602;2023-08-24T07:21:07;6.13;;;4.88;;
30048;SDS011;16879;50.852;15.602;2023-08-24T07:23:33;7.05;;;4.93;;
30048;SDS011;16879;50.852;15.602;2023-08-24T07:25:59;4.00;;;3.70;;
30048;SDS011;16879;50.852;15.602;2023-08-24T07:28:25;5.85;;;4.45;;
30048;SDS011;16879;50.852;15.602;2023-08-24T07:30:51;6.45;;;3.90;;
30048;SDS011;16879;50.852;15.602;2023-08-24T07:33:21;8.90;;;5.38;;
30048;SDS011;16879;50.852;15.602;2023-08-24T07:35:47;7.32;;;4.90;;
30048;SDS011;16879;50.852;15.602;2023-08-24T07:38:13;5.90;;;4.22;;
30048;SDS011;16879;50.852;15.602;2023-08-24T07:40:39;6.50;;;4.22;;
30048;SDS011;16879;50.852;15.602;2023-08-24T07:43:05;5.47;;;4.40;;
30048;SDS011;16879;50.852;15.602;2023-08-24T07:45:32;4.13;;;3.72;;
30048;SDS011;16879;50.852;15.602;2023-08-24T07:47:58;4.95;;;4.50;;
30048;SDS011;16879;50.852;15.602;2023-08-24T07:50:25;4.28;;;3.50;;
30048;SDS011;16879;50.852;15.602;2023-08-24T07:52:51;7.95;;;4.60;;
30048;SDS011;16879;50.852;15.602;2023-08-24T07:55:17;7.65;;;4.40;;
30048;SDS011;16879;50.852;15.602;2023-08-24T07:57:42;5.03;;;3.80;;
30048;SDS011;16879;50.852;15.602;2023-08-24T08:00:11;8.88;;;3.92;;
30048;SDS011;16879;50.852;15.602;2023-08-24T08:02:39;3.83;;;3.53;;
30048;SDS011;16879;50.852;15.602;2023-08-24T08:05:05;3.80;;;3.40;;
30048;SDS011;16879;50.852;15.602;2023-08-24T08:07:35;6.15;;;3.13;;
30048;SDS011;16879;50.852;15.602;2023-08-24T08:10:04;4.70;;;3.67;;
30048;SDS011;16879;50.852;15.602;2023-08-24T08:12:32;5.15;;;3.33;;
30048;SDS011;16879;50.852;15.602;2023-08-24T08:14:59;3.85;;;3.50;;
30048;SDS011;16879;50.852;15.602;2023-08-24T08:17:25;4.45;;;3.10;;
30048;SDS011;16879;50.852;15.602;2023-08-24T08:19:59;3.30;;;2.95;;
30048;SDS011;16879;50.852;15.602;2023-08-24T08:22:24;3.75;;;2.85;;
30048;SDS011;16879;50.852;15.602;2023-08-24T08:24:51;4.72;;;3.03;;
30048;SDS011;16879;50.852;15.602;2023-08-24T08:27:19;3.67;;;2.80;;
30048;SDS011;16879;50.852;15.602;2023-08-24T08:29:46;5.10;;;2.90;;
30048;SDS011;16879;50.852;15.602;2023-08-24T08:32:13;3.55;;;2.90;;
30048;SDS011;16879;50.852;15.602;2023-08-24T08:34:39;3.17;;;2.65;;
30048;SDS011;16879;50.852;15.602;2023-08-24T08:37:05;3.33;;;3.03;;
30048;SDS011;16879;50.852;15.602;2023-08-24T08:39:34;8.30;;;3.65;;
30048;SDS011;16879;50.852;15.602;2023-08-24T08:42:00;3.80;;;2.88;;
30048;SDS011;16879;50.852;15.602;2023-08-24T08:44:29;3.20;;;2.80;;
30048;SDS011;16879;50.852;15.602;2023-08-24T08:46:59;3.28;;;3.05;;
30048;SDS011;16879;50.852;15.602;2023-08-24T08:49:26;2.40;;;2.22;;
30048;SDS011;16879;50.852;15.602;2023-08-24T08:51:52;5.75;;;2.75;;
30048;SDS011;16879;50.852;15.602;2023-08-24T08:54:18;4.57;;;2.80;;
30048;SDS011;16879;50.852;15.602;2023-08-24T08:56:45;4.63;;;3.17;;
30048;SDS011;16879;50.852;15.602;2023-08-24T08:59:12;3.90;;;2.97;;
30048;SDS011;16879;50.852;15.602;2023-08-24T09:01:39;5.93;;;3.08;;
30048;SDS011;16879;50.852;15.602;2023-08-24T09:04:09;4.30;;;2.83;;
30048;SDS011;16879;50.852;15.602;2023-08-24T09:06:37;4.10;;;2.85;;
30048;SDS011;16879;50.852;15.602;2023-08-24T09:09:04;3.20;;;2.92;;
30048;SDS011;16879;50.852;15.602;2023-08-24T09:11:30;5.97;;;3.08;;
30048;SDS011;16879;50.852;15.602;2023-08-24T09:13:57;3.22;;;2.70;;
30048;SDS011;16879;50.852;15.602;2023-08-24T09:16:23;4.88;;;2.78;;
30048;SDS011;16879;50.852;15.602;2023-08-24T09:18:49;4.35;;;2.80;;
30048;SDS011;16879;50.852;15.602;2023-08-24T09:21:15;6.53;;;3.13;;
30048;SDS011;16879;50.852;15.602;2023-08-24T09:23:45;3.08;;;2.78;;
30048;SDS011;16879;50.852;15.602;2023-08-24T09:26:28;5.72;;;3.10;;
30048;SDS011;16879;50.852;15.602;2023-08-24T09:28:55;3.65;;;3.30;;
30048;SDS011;16879;50.852;15.602;2023-08-24T09:31:22;4.75;;;2.88;;
30048;SDS011;16879;50.852;15.602;2023-08-24T09:34:09;2.85;;;2.60;;
30048;SDS011;16879;50.852;15.602;2023-08-24T09:36:35;5.35;;;2.80;;
30048;SDS011;16879;50.852;15.602;2023-08-24T09:39:03;5.50;;;2.92;;
30048;SDS011;16879;50.852;15.602;2023-08-24T09:41:40;2.97;;;2.50;;
30048;SDS011;16879;50.852;15.602;2023-08-24T09:44:06;3.35;;;2.67;;
30048;SDS011;16879;50.852;15.602;2023-08-24T09:46:37;4.50;;;2.90;;
30048;SDS011;16879;50.852;15.602;2023-08-24T09:49:11;5.32;;;2.55;;
30048;SDS011;16879;50.852;15.602;2023-08-24T09:51:38;4.80;;;3.08;;
30048;SDS011;16879;50.852;15.602;2023-08-24T09:54:06;3.40;;;3.10;;
30048;SDS011;16879;50.852;15.602;2023-08-24T09:56:39;3.58;;;2.90;;
30048;SDS011;16879;50.852;15.602;2023-08-24T09:59:10;5.30;;;3.22;;
30048;SDS011;16879;50.852;15.602;2023-08-24T10:01:46;3.00;;;2.70;;
30048;SDS011;16879;50.852;15.602;2023-08-24T10:04:14;4.40;;;2.70;;
30048;SDS011;16879;50.852;15.602;2023-08-24T10:06:42;6.30;;;2.78;;
30048;SDS011;16879;50.852;15.602;2023-08-24T10:09:14;4.68;;;3.20;;
30048;SDS011;16879;50.852;15.602;2023-08-24T10:11:56;5.88;;;3.30;;
30048;SDS011;16879;50.852;15.602;2023-08-24T10:14:27;2.97;;;2.47;;
30048;SDS011;16879;50.852;15.602;2023-08-24T10:16:57;3.75;;;2.88;;
30048;SDS011;16879;50.852;15.602;2023-08-24T10:19:23;2.67;;;2.40;;
30048;SDS011;16879;50.852;15.602;2023-08-24T10:21:52;5.25;;;2.65;;
30048;SDS011;16879;50.852;15.602;2023-08-24T10:24:22;4.55;;;2.85;;
30048;SDS011;16879;50.852;15.602;2023-08-24T10:26:48;2.53;;;2.30;;
30048;SDS011;16879;50.852;15.602;2023-08-24T10:29:16;5.18;;;3.33;;
30048;SDS011;16879;50.852;15.602;2023-08-24T10:31:43;4.43;;;2.55;;
30048;SDS011;16879;50.852;15.602;2023-08-24T10:34:10;4.20;;;2.50;;
30048;SDS011;16879;50.852;15.602;2023-08-24T10:36:39;3.95;;;3.13;;
30048;SDS011;16879;50.852;15.602;2023-08-24T10:39:06;2.72;;;2.38;;
30048;SDS011;16879;50.852;15.602;2023-08-24T10:41:48;2.67;;;2.47;;
30048;SDS011;16879;50.852;15.602;2023-08-24T10:44:36;6.15;;;2.92;;
30048;SDS011;16879;50.852;15.602;2023-08-24T10:47:20;3.28;;;2.97;;
30048;SDS011;16879;50.852;15.602;2023-08-24T10:52:22;4.25;;;2.90;;
30048;SDS011;16879;50.852;15.602;2023-08-24T10:54:50;3.97;;;3.00;;
30048;SDS011;16879;50.852;15.602;2023-08-24T10:57:21;3.28;;;2.67;;
30048;SDS011;16879;50.852;15.602;2023-08-24T11:00:10;7.45;;;4.00;;
30048;SDS011;16879;50.852;15.602;2023-08-24T11:02:46;5.38;;;3.05;;
30048;SDS011;16879;50.852;15.602;2023-08-24T11:05:23;3.15;;;2.85;;
30048;SDS011;16879;50.852;15.602;2023-08-24T11:07:56;5.57;;;2.50;;
30048;SDS011;16879;50.852;15.602;2023-08-24T11:10:23;4.30;;;2.47;;
30048;SDS011;16879;50.852;15.602;2023-08-24T11:13:06;3.58;;;2.75;;
30048;SDS011;16879;50.852;15.602;2023-08-24T11:15:33;2.95;;;2.67;;
30048;SDS011;16879;50.852;15.602;2023-08-24T11:20:52;2.75;;;2.50;;
30048;SDS011;16879;50.852;15.602;2023-08-24T11:23:19;2.78;;;2.58;;
30048;SDS011;16879;50.852;15.602;2023-08-24T11:25:46;7.70;;;3.22;;
30048;SDS011;16879;50.852;15.602;2023-08-24T11:28:21;3.90;;;2.47;;
30048;SDS011;16879;50.852;15.602;2023-08-24T11:30:48;3.70;;;2.55;;
30048;SDS011;16879;50.852;15.602;2023-08-24T11:33:16;4.28;;;2.22;;
30048;SDS011;16879;50.852;15.602;2023-08-24T11:35:45;6.45;;;2.53;;
30048;SDS011;16879;50.852;15.602;2023-08-24T11:38:12;5.95;;;2.40;;
30048;SDS011;16879;50.852;15.602;2023-08-24T11:40:39;3.92;;;2.63;;
30048;SDS011;16879;50.852;15.602;2023-08-24T11:43:05;5.97;;;3.22;;
30048;SDS011;16879;50.852;15.602;2023-08-24T11:45:31;3.00;;;2.72;;
30048;SDS011;16879;50.852;15.602;2023-08-24T11:47:59;5.28;;;2.58;;
30048;SDS011;16879;50.852;15.602;2023-08-24T11:50:26;3.83;;;2.58;;
30048;SDS011;16879;50.852;15.602;2023-08-24T11:52:53;3.53;;;2.78;;
30048;SDS011;16879;50.852;15.602;2023-08-24T11:55:20;4.55;;;2.72;;
30048;SDS011;16879;50.852;15.602;2023-08-24T11:57:47;3.33;;;2.80;;
30048;SDS011;16879;50.852;15.602;2023-08-24T12:00:13;3.88;;;2.72;;
30048;SDS011;16879;50.852;15.602;2023-08-24T12:02:41;3.90;;;2.58;;
30048;SDS011;16879;50.852;15.602;2023-08-24T12:05:08;3.78;;;3.13;;
30048;SDS011;16879;50.852;15.602;2023-08-24T12:07:45;3.22;;;2.72;;
30048;SDS011;16879;50.852;15.602;2023-08-24T12:10:12;2.92;;;2.22;;
30048;SDS011;16879;50.852;15.602;2023-08-24T12:12:38;2.55;;;2.30;;
30048;SDS011;16879;50.852;15.602;2023-08-24T12:15:04;3.95;;;2.45;;
30048;SDS011;16879;50.852;15.602;2023-08-24T12:17:41;17.88;;;3.15;;
30048;SDS011;16879;50.852;15.602;2023-08-24T12:20:07;3.10;;;2.45;;
30048;SDS011;16879;50.852;15.602;2023-08-24T12:22:41;3.47;;;2.78;;
30048;SDS011;16879;50.852;15.602;2023-08-24T12:25:09;2.63;;;2.42;;
30048;SDS011;16879;50.852;15.602;2023-08-24T12:27:35;3.88;;;2.97;;
30048;SDS011;16879;50.852;15.602;2023-08-24T12:30:02;2.72;;;2.53;;
30048;SDS011;16879;50.852;15.602;2023-08-24T12:32:41;2.63;;;2.33;;
30048;SDS011;16879;50.852;15.602;2023-08-24T12:35:11;6.00;;;2.72;;
30048;SDS011;16879;50.852;15.602;2023-08-24T12:37:39;2.92;;;2.60;;
30048;SDS011;16879;50.852;15.602;2023-08-24T12:40:05;3.03;;;2.58;;
30048;SDS011;16879;50.852;15.602;2023-08-24T12:42:32;5.35;;;2.40;;
30048;SDS011;16879;50.852;15.602;2023-08-24T12:44:58;5.13;;;2.88;;
30048;SDS011;16879;50.852;15.602;2023-08-24T12:47:25;2.63;;;2.33;;
30048;SDS011;16879;50.852;15.602;2023-08-24T12:49:51;2.58;;;2.38;;
30048;SDS011;16879;50.852;15.602;2023-08-24T12:52:21;3.03;;;2.83;;
30048;SDS011;16879;50.852;15.602;2023-08-24T12:54:48;3.17;;;2.67;;
30048;SDS011;16879;50.852;15.602;2023-08-24T12:57:14;4.80;;;2.42;;
30048;SDS011;16879;50.852;15.602;2023-08-24T12:59:40;2.92;;;2.72;;
30048;SDS011;16879;50.852;15.602;2023-08-24T13:02:07;2.95;;;2.75;;
30048;SDS011;16879;50.852;15.602;2023-08-24T13:04:32;2.30;;;2.10;;
30048;SDS011;16879;50.852;15.602;2023-08-24T13:06:59;2.95;;;2.65;;
30048;SDS011;16879;50.852;15.602;2023-08-24T13:09:24;2.75;;;2.55;;
30048;SDS011;16879;50.852;15.602;2023-08-24T13:11:51;4.30;;;2.53;;
30048;SDS011;16879;50.852;15.602;2023-08-24T13:14:17;3.17;;;2.40;;
30048;SDS011;16879;50.852;15.602;2023-08-24T13:16:42;3.85;;;2.78;;
30048;SDS011;16879;50.852;15.602;2023-08-24T13:19:09;3.03;;;2.72;;
30048;SDS011;16879;50.852;15.602;2023-08-24T13:21:35;3.45;;;2.25;;
30048;SDS011;16879;50.852;15.602;2023-08-24T13:24:01;4.25;;;2.38;;
30048;SDS011;16879;50.852;15.602;2023-08-24T13:26:27;3.63;;;2.47;;
30048;SDS011;16879;50.852;15.602;2023-08-24T13:28:52;2.40;;;2.20;;
30048;SDS011;16879;50.852;15.602;2023-08-24T13:31:19;4.28;;;2.58;;
30048;SDS011;16879;50.852;15.602;2023-08-24T13:33:45;2.08;;;1.83;;
30048;SDS011;16879;50.852;15.602;2023-08-24T13:36:11;2.17;;;1.98;;
30048;SDS011;16879;50.852;15.602;2023-08-24T13:38:37;2.95;;;2.00;;
30048;SDS011;16879;50.852;15.602;2023-08-24T13:41:03;2.58;;;2.38;;
30048;SDS011;16879;50.852;15.602;2023-08-24T13:43:31;2.47;;;1.95;;
30048;SDS011;16879;50.852;15.602;2023-08-24T13:45:57;2.78;;;2.35;;
30048;SDS011;16879;50.852;15.602;2023-08-24T13:48:24;2.40;;;2.17;;
30048;SDS011;16879;50.852;15.602;2023-08-24T13:50:50;6.38;;;2.72;;
30048;SDS011;16879;50.852;15.602;2023-08-24T13:53:19;3.47;;;2.20;;
30048;SDS011;16879;50.852;15.602;2023-08-24T13:55:46;2.92;;;1.90;;
30048;SDS011;16879;50.852;15.602;2023-08-24T13:58:11;3.17;;;2.45;;
30048;SDS011;16879;50.852;15.602;2023-08-24T14:00:37;2.28;;;2.03;;
30048;SDS011;16879;50.852;15.602;2023-08-24T14:03:06;2.95;;;1.98;;
30048;SDS011;16879;50.852;15.602;2023-08-24T14:05:38;3.13;;;1.92;;
30048;SDS011;16879;50.852;15.602;2023-08-24T14:08:06;3.38;;;2.22;;
30048;SDS011;16879;50.852;15.602;2023-08-24T14:10:33;2.70;;;2.00;;
30048;SDS011;16879;50.852;15.602;2023-08-24T14:13:00;2.17;;;1.95;;
30048;SDS011;16879;50.852;15.602;2023-08-24T14:15:26;2.53;;;2.15;;
30048;SDS011;16879;50.852;15.602;2023-08-24T14:17:53;2.50;;;1.95;;
30048;SDS011;16879;50.852;15.602;2023-08-24T14:20:19;2.85;;;2.13;;
30048;SDS011;16879;50.852;15.602;2023-08-24T16:38:42;9.93;;;3.50;;
30048;SDS011;16879;50.852;15.602;2023-08-24T16:41:12;8.90;;;3.47;;
30048;SDS011;16879;50.852;15.602;2023-08-24T16:43:39;3.25;;;3.00;;
30048;SDS011;16879;50.852;15.602;2023-08-24T16:46:05;7.47;;;3.63;;
30048;SDS011;16879;50.852;15.602;2023-08-24T16:48:31;4.00;;;3.42;;
30048;SDS011;16879;50.852;15.602;2023-08-24T16:50:56;6.47;;;3.83;;
30048;SDS011;16879;50.852;15.602;2023-08-24T16:53:23;4.90;;;3.28;;
30048;SDS011;16879;50.852;15.602;2023-08-24T16:55:49;3.92;;;3.63;;
30048;SDS011;16879;50.852;15.602;2023-08-24T16:58:16;6.47;;;4.22;;
30048;SDS011;16879;50.852;15.602;2023-08-24T17:00:42;6.38;;;3.88;;
30048;SDS011;16879;50.852;15.602;2023-08-24T17:03:09;5.30;;;3.78;;
30048;SDS011;16879;50.852;15.602;2023-08-24T17:05:36;4.80;;;3.80;;